Time;durP1;ratioP1;P1;durP2;ratioP2;P2;SDS_P1;SDS_P2;PMS_P1;PMS_P2;Temp;Humidity;BMP_temperature;BMP_pressure;BME280_temperature;BME280_humidity;BME280_pressure;Samples;Min_cycle;Max_cycle;Signal;HPM_P1;HPM_P2
2022/01/22 00:01:36;;;;;;;;;;;;;;;2.65;95.77;102094.56;5037022;28;20238;-77
2022/01/22 00:04:02;;;;;;;;;;;;;;;2.72;95.51;102090.78;5046872;28;19933;-77
2022/01/22 00:06:27;;;;;;;;;;;;;;;2.65;96.05;102083.28;5026730;28;19921;-77
2022/01/22 00:08:52;;;;;;;;;;;;;;;2.58;96.52;102093.09;5048296;28;19916;-76
2022/01/22 00:11:17;;;;;;;;;;;;;;;2.58;96.60;102094.88;5044406;28;20914;-76
2022/01/22 00:16:26;;;;;;;;;;;;;;;2.74;95.43;102081.13;5049656;28;19970;-77
2022/01/22 00:18:52;;;;;;;;;;;;;;;2.74;95.45;102077.66;5052533;28;19979;-76
2022/01/22 00:21:17;;;;;;;;;;;;;;;2.83;94.98;102076.44;5057292;28;19928;-77
2022/01/22 00:23:48;;;;;;;;;;;;;;;2.83;94.95;102065.97;5052720;28;19921;-77
2022/01/22 00:26:14;;;;;;;;;;;;;;;2.85;94.87;102067.59;5052405;28;19925;-76
2022/01/22 00:28:39;;;;;;;;;;;;;;;2.87;94.54;102067.56;5052742;28;20270;-77
2022/01/22 00:31:04;;;;;;;;;;;;;;;2.80;95.16;102066.97;5051890;28;19928;-77
2022/01/22 00:33:29;;;;;;;;;;;;;;;2.88;94.82;102066.63;5034813;28;19952;-77
2022/01/22 00:35:54;;;;;;;;;;;;;;;2.90;94.50;102067.41;5035080;28;19916;-76
2022/01/22 00:38:20;;;;;;;;;;;;;;;2.92;94.57;102079.50;5052823;28;19943;-77
2022/01/22 00:40:50;;;;;;;;;;;;;;;2.93;94.40;102078.59;5052435;28;20369;-77
2022/01/22 00:43:16;;;;;;;;;;;;;;;2.95;94.37;102081.13;5052905;28;19921;-77
2022/01/22 00:45:41;;;;;;;;;;;;;;;2.95;94.14;102088.97;5053344;28;19979;-76
2022/01/22 00:48:06;;;;;;;;;;;;;;;2.91;94.61;102079.59;5036408;28;19921;-77
2022/01/22 00:50:31;;;;;;;;;;;;;;;2.99;94.29;102080.09;5056440;28;19924;-77
2022/01/22 00:52:56;;;;;;;;;;;;;;;2.98;94.14;102083.66;5071653;28;19921;-76
2022/01/22 00:55:22;;;;;;;;;;;;;;;3.04;94.15;102082.53;5070779;28;19948;-76
2022/01/22 00:57:47;;;;;;;;;;;;;;;3.03;93.90;102071.22;5054296;28;20179;-77
2022/01/22 01:00:14;;;;;;;;;;;;;;;2.98;93.75;102078.41;5033048;28;19924;-77
2022/01/22 01:02:39;;;;;;;;;;;;;;;2.97;93.90;102082.78;5045913;28;19972;-77
2022/01/22 01:05:06;;;;;;;;;;;;;;;3.01;94.09;102087.88;5028459;28;19960;-77
2022/01/22 01:07:31;;;;;;;;;;;;;;;2.98;93.92;102081.03;5050266;28;19952;-77
2022/01/22 01:09:56;;;;;;;;;;;;;;;2.82;95.49;102091.25;5051355;28;20384;-77
2022/01/22 01:12:22;;;;;;;;;;;;;;;2.87;95.40;102086.69;5030915;28;19928;-77
2022/01/22 01:14:55;;;;;;;;;;;;;;;2.96;94.34;102085.47;5043394;28;20318;-77
2022/01/22 01:34:12;;;;;;;;;;;;;;;3.15;93.35;102082.94;5050254;28;19975;-77
2022/01/22 01:36:35;;;;;;;;;;;;;;;3.15;93.35;102082.94;5050237;28;20003;-77
2022/01/22 01:39:02;;;;;;;;;;;;;;;3.09;93.41;102077.94;5051632;28;19959;-77
2022/01/22 01:41:36;;;;;;;;;;;;;;;3.21;93.01;102081.81;5066038;28;19939;-78
2022/01/22 01:44:02;;;;;;;;;;;;;;;3.16;93.22;102085.44;5064141;28;19920;-77
2022/01/22 01:46:30;;;;;;;;;;;;;;;3.19;93.09;102085.34;5068406;28;19925;-77
2022/01/22 01:48:56;;;;;;;;;;;;;;;3.17;93.15;102089.78;5068140;28;19921;-77
2022/01/22 01:51:25;;;;;;;;;;;;;;;3.15;93.21;102096.84;5067663;28;20384;-77
2022/01/22 01:59:02;;;;;;;;;;;;;;;3.25;92.88;102099.06;5049867;28;19931;-78
2022/01/22 02:01:27;;;;;;;;;;;;;;;3.23;93.03;102090.44;5051091;28;20331;-77
2022/01/22 02:03:52;;;;;;;;;;;;;;;3.26;92.70;102092.91;5054743;28;19913;-78
2022/01/22 02:06:18;;;;;;;;;;;;;;;3.14;93.49;102096.91;5053055;28;20563;-78
2022/01/22 02:08:43;;;;;;;;;;;;;;;3.11;93.32;102100.50;5050703;28;19928;-78
2022/01/22 02:11:10;;;;;;;;;;;;;;;3.16;93.43;102095.06;5051065;28;19968;-77
2022/01/22 02:24:39;;;;;;;;;;;;;;;3.28;92.56;102093.69;5050784;28;20400;-78
2022/01/22 02:27:05;;;;;;;;;;;;;;;3.28;92.62;102081.47;5033684;28;20007;-78
2022/01/22 02:29:30;;;;;;;;;;;;;;;3.29;92.82;102084.91;5052892;28;19999;-77
2022/01/22 02:32:32;;;;;;;;;;;;;;;3.29;92.20;102077.94;5055779;28;19913;-78
2022/01/22 02:34:54;;;;;;;;;;;;;;;3.24;92.65;102073.81;5055208;28;20340;-78
2022/01/22 02:37:22;;;;;;;;;;;;;;;3.19;92.78;102074.88;5050412;28;20294;-77
2022/01/22 02:40:05;;;;;;;;;;;;;;;3.18;93.26;102075.78;5050640;28;20204;-78
2022/01/22 02:42:34;;;;;;;;;;;;;;;3.15;93.59;102077.69;5050062;28;20344;-78
2022/01/22 02:44:59;;;;;;;;;;;;;;;3.18;93.40;102070.56;5053085;28;19927;-78
2022/01/22 02:47:24;;;;;;;;;;;;;;;3.19;93.41;102072.28;5053651;28;19996;-78
2022/01/22 02:49:49;;;;;;;;;;;;;;;3.16;93.20;102064.53;5035892;28;20354;-77
2022/01/22 02:52:17;;;;;;;;;;;;;;;3.25;93.03;102063.31;5051883;28;20031;-78
2022/01/22 02:54:43;;;;;;;;;;;;;;;3.26;92.73;102064.16;5053471;28;19920;-77
2022/01/22 02:57:09;;;;;;;;;;;;;;;3.29;92.57;102058.78;5053513;28;19939;-77
2022/01/22 02:59:34;;;;;;;;;;;;;;;3.25;92.64;102058.06;5057934;28;19920;-77
2022/01/22 03:02:01;;;;;;;;;;;;;;;3.30;92.63;102057.88;5032421;22;19932;-76
2022/01/22 03:04:26;;;;;;;;;;;;;;;3.28;92.89;102067.56;4990279;28;20349;-77
2022/01/22 03:06:52;;;;;;;;;;;;;;;3.25;92.95;102068.53;4998988;28;19929;-77
2022/01/22 03:09:18;;;;;;;;;;;;;;;3.28;92.72;102064.94;4991363;28;19918;-76
2022/01/22 03:12:12;;;;;;;;;;;;;;;3.27;92.79;102066.72;4981256;28;20065;-77
2022/01/22 03:20:23;;;;;;;;;;;;;;;3.22;92.78;102068.69;5009247;28;19964;-77
2022/01/22 03:28:00;;;;;;;;;;;;;;;3.25;92.47;102078.16;5001714;28;19928;-76
2022/01/22 03:30:26;;;;;;;;;;;;;;;3.17;92.97;102074.09;5010712;28;19992;-76
2022/01/22 03:32:53;;;;;;;;;;;;;;;3.24;92.56;102074.66;4998514;28;20426;-77
2022/01/22 03:37:48;;;;;;;;;;;;;;;3.21;92.83;102082.66;5008909;28;19921;-77
2022/01/22 03:40:14;;;;;;;;;;;;;;;3.18;92.96;102081.00;4999389;28;19922;-77
2022/01/22 03:42:40;;;;;;;;;;;;;;;3.25;92.51;102084.22;4992218;28;19929;-76
2022/01/22 03:45:06;;;;;;;;;;;;;;;3.23;92.33;102085.22;4993121;28;19922;-76
2022/01/22 03:47:32;;;;;;;;;;;;;;;3.24;92.63;102077.28;5006984;28;19925;-77
2022/01/22 03:49:57;;;;;;;;;;;;;;;3.23;92.46;102075.59;4992280;28;19921;-77
2022/01/22 03:52:22;;;;;;;;;;;;;;;3.21;92.60;102085.25;4996050;28;19957;-77
2022/01/22 03:54:47;;;;;;;;;;;;;;;3.13;93.07;102077.75;5006956;28;19921;-77
2022/01/22 03:57:13;;;;;;;;;;;;;;;3.21;92.75;102080.03;4994981;28;19922;-77
2022/01/22 03:59:38;;;;;;;;;;;;;;;3.14;93.06;102079.44;4997340;28;19929;-76
2022/01/22 04:04:41;;;;;;;;;;;;;;;3.14;93.08;102082.06;5009533;28;20276;-77
2022/01/22 04:09:53;;;;;;;;;;;;;;;3.16;93.21;102079.38;5007713;28;19967;-77
2022/01/22 04:12:26;;;;;;;;;;;;;;;3.25;93.01;102071.16;5010109;28;20337;-77
2022/01/22 04:14:58;;;;;;;;;;;;;;;3.24;92.80;102076.44;5001397;28;20000;-77
2022/01/22 04:24:49;;;;;;;;;;;;;;;3.19;92.89;102074.88;4998535;28;19922;-77
2022/01/22 04:25:43;;;;;;;;;;;;;;;3.19;92.99;102072.28;5001545;28;19932;-76
2022/01/22 04:28:09;;;;;;;;;;;;;;;3.18;93.18;102067.09;5009468;28;19964;-77
2022/01/22 04:30:34;;;;;;;;;;;;;;;3.25;92.90;102062.47;5008250;28;20694;-77
2022/01/22 04:33:04;;;;;;;;;;;;;;;3.26;92.84;102062.38;5001487;28;20395;-76
2022/01/22 04:35:29;;;;;;;;;;;;;;;3.26;92.61;102066.75;4994379;28;19944;-76
2022/01/22 04:37:54;;;;;;;;;;;;;;;3.23;92.40;102065.13;5001342;28;20366;-77
2022/01/22 04:40:19;;;;;;;;;;;;;;;3.23;92.88;102069.53;5003215;28;19928;-76
2022/01/22 04:42:45;;;;;;;;;;;;;;;3.26;92.84;102062.38;5010061;28;19992;-76
2022/01/22 04:55:35;;;;;;;;;;;;;;;3.30;92.31;102061.34;5008689;28;19944;-77
2022/01/22 04:58:03;;;;;;;;;;;;;;;3.29;92.44;102059.66;4997292;28;20368;-76
2022/01/22 05:00:29;;;;;;;;;;;;;;;3.24;92.26;102058.13;4978110;28;19972;-76
2022/01/22 05:02:54;;;;;;;;;;;;;;;3.28;92.29;102062.31;4987175;28;19922;-76
2022/01/22 05:05:19;;;;;;;;;;;;;;;3.30;92.39;102066.56;5001053;28;19964;-76
2022/01/22 05:07:44;;;;;;;;;;;;;;;3.29;92.28;102067.50;5003356;28;20013;-77
2022/01/22 05:10:10;;;;;;;;;;;;;;;3.31;92.41;102067.41;5009484;28;19918;-76
2022/01/22 05:12:36;;;;;;;;;;;;;;;3.29;92.40;102070.13;5006346;28;19925;-76
2022/01/22 05:15:01;;;;;;;;;;;;;;;3.27;92.51;102071.94;5007649;28;19922;-76
2022/01/22 05:17:27;;;;;;;;;;;;;;;3.31;92.52;102073.50;5001762;28;20431;-77
2022/01/22 05:19:59;;;;;;;;;;;;;;;3.34;92.24;102075.13;5006652;28;19980;-76
2022/01/22 05:22:43;;;;;;;;;;;;;;;3.32;92.29;102072.59;5001172;28;20003;-77
2022/01/22 05:25:14;;;;;;;;;;;;;;;3.31;92.47;102064.78;5010210;28;19929;-76
2022/01/22 05:30:25;;;;;;;;;;;;;;;3.29;92.46;102064.00;5009845;28;20293;-77
2022/01/22 05:38:07;;;;;;;;;;;;;;;3.27;91.91;102071.94;4974781;28;20304;-77
2022/01/22 05:40:33;;;;;;;;;;;;;;;3.39;91.99;102071.41;5007859;28;19922;-77
2022/01/22 05:42:58;;;;;;;;;;;;;;;3.47;92.15;102081.50;5007994;28;19917;-76
2022/01/22 05:45:23;;;;;;;;;;;;;;;3.53;91.53;102073.41;5008536;28;19949;-77
2022/01/22 05:47:48;;;;;;;;;;;;;;;3.49;91.43;102076.22;5001167;28;20393;-76
2022/01/22 05:50:27;;;;;;;;;;;;;;;3.45;91.39;102080.72;5007325;28;19927;-76
2022/01/22 05:52:58;;;;;;;;;;;;;;;3.49;91.46;102090.16;5000633;28;19926;-76
2022/01/22 05:59:35;;;;;;;;;;;;;;;3.48;91.34;102090.19;4994664;28;20408;-76
2022/01/22 06:00:58;;;;;;;;;;;;;;;3.42;91.44;102091.34;4991690;28;19984;-76
2022/01/22 06:03:23;;;;;;;;;;;;;;;3.42;91.63;102091.34;5003819;28;19925;-76
2022/01/22 06:05:48;;;;;;;;;;;;;;;3.32;91.76;102084.81;5012239;28;19951;-76
2022/01/22 06:08:16;;;;;;;;;;;;;;;3.34;91.65;102082.97;5012178;28;19964;-76
2022/01/22 06:10:42;;;;;;;;;;;;;;;3.38;91.82;102084.53;5012331;28;20420;-76
2022/01/22 06:13:13;;;;;;;;;;;;;;;3.29;92.14;102090.16;5006172;28;19929;-76
2022/01/22 06:15:39;;;;;;;;;;;;;;;3.30;92.16;102090.09;5006296;28;20560;-76
2022/01/22 06:18:04;;;;;;;;;;;;;;;3.33;91.91;102091.72;5008119;28;19918;-76
2022/01/22 06:20:29;;;;;;;;;;;;;;;3.28;92.53;102098.91;4994068;28;19918;-76
2022/01/22 06:22:54;;;;;;;;;;;;;;;3.26;92.75;102093.75;4994118;28;19918;-76
2022/01/22 06:25:19;;;;;;;;;;;;;;;3.25;93.24;102099.06;4993819;28;20000;-77
2022/01/22 06:27:45;;;;;;;;;;;;;;;3.29;92.77;102098.00;5002069;28;19922;-77
2022/01/22 06:30:11;;;;;;;;;;;;;;;3.30;92.74;102100.56;4999876;28;20052;-77
2022/01/22 06:32:36;;;;;;;;;;;;;;;3.30;92.20;102097.94;4994015;28;19921;-76
2022/01/22 06:35:02;;;;;;;;;;;;;;;3.28;91.50;102106.75;4998754;28;19928;-76
2022/01/22 06:37:27;;;;;;;;;;;;;;;3.30;91.52;102100.56;5013298;28;19940;-76
2022/01/22 06:42:35;;;;;;;;;;;;;;;3.40;91.32;102095.78;4990437;28;19922;-76
2022/01/22 06:45:01;;;;;;;;;;;;;;;3.44;91.38;102101.72;4979529;28;20197;-76
2022/01/22 06:47:27;;;;;;;;;;;;;;;3.48;90.58;102103.28;4976888;28;19918;-76
2022/01/22 06:49:53;;;;;;;;;;;;;;;3.66;90.05;102093.78;4986256;28;19928;-76
2022/01/22 06:52:18;;;;;;;;;;;;;;;3.60;89.61;102105.38;4978723;28;19987;-77
2022/01/22 06:54:44;;;;;;;;;;;;;;;3.57;89.35;102111.56;4976570;28;20386;-77
2022/01/22 06:57:10;;;;;;;;;;;;;;;3.61;89.49;102118.38;4975814;28;19948;-77
2022/01/22 06:59:36;;;;;;;;;;;;;;;3.62;89.97;102121.81;4974331;28;19922;-77
2022/01/22 07:02:01;;;;;;;;;;;;;;;3.66;89.63;102125.19;4979163;28;19922;-76
2022/01/22 07:04:26;;;;;;;;;;;;;;;3.68;89.30;102133.81;4981168;28;20401;-76
2022/01/22 07:06:51;;;;;;;;;;;;;;;3.67;89.22;102129.47;4982696;28;20362;-76
2022/01/22 07:09:17;;;;;;;;;;;;;;;3.71;89.41;102125.81;4978028;28;19917;-76
2022/01/22 07:11:42;;;;;;;;;;;;;;;3.75;89.71;102122.16;4984889;28;19969;-77
2022/01/22 07:14:07;;;;;;;;;;;;;;;3.69;89.32;102123.25;4990962;28;19924;-77
2022/01/22 07:16:32;;;;;;;;;;;;;;;3.70;89.17;102122.34;4990241;28;19973;-76
2022/01/22 07:19:01;;;;;;;;;;;;;;;3.78;88.91;102124.63;4988967;28;19971;-76
2022/01/22 07:21:29;;;;;;;;;;;;;;;3.78;88.63;102133.31;4987025;28;19922;-76
2022/01/22 07:26:29;;;;;;;;;;;;;;;3.79;88.70;102135.03;4991866;28;19926;-77
2022/01/22 07:28:55;;;;;;;;;;;;;;;3.82;89.16;102141.91;4988665;28;20362;-77
2022/01/22 07:31:25;;;;;;;;;;;;;;;3.80;89.05;102144.56;4979743;28;19922;-76
2022/01/22 07:33:50;;;;;;;;;;;;;;;3.85;89.07;102140.91;4987696;28;19973;-77
2022/01/22 07:36:15;;;;;;;;;;;;;;;3.82;89.22;102142.72;4972794;28;19922;-77
2022/01/22 07:38:40;;;;;;;;;;;;;;;3.89;88.74;102148.56;4972184;28;19929;-77
2022/01/22 07:41:07;;;;;;;;;;;;;;;3.83;88.38;102148.81;4978419;28;19922;-77
2022/01/22 07:43:32;;;;;;;;;;;;;;;3.83;88.71;102138.34;4992678;28;19929;-77
2022/01/22 07:45:58;;;;;;;;;;;;;;;3.88;88.77;102131.13;4983830;28;20323;-77
2022/01/22 07:48:23;;;;;;;;;;;;;;;3.88;88.46;102138.16;4989711;28;19994;-77
2022/01/22 07:50:48;;;;;;;;;;;;;;;3.90;88.70;102142.38;4990322;28;19918;-77
2022/01/22 07:53:13;;;;;;;;;;;;;;;3.87;88.40;102160.00;4975330;28;19918;-77
2022/01/22 07:55:39;;;;;;;;;;;;;;;3.94;88.97;102149.19;4993251;28;19977;-77
2022/01/22 07:58:04;;;;;;;;;;;;;;;4.03;89.20;102145.31;4992973;28;19925;-77
2022/01/22 08:00:29;;;;;;;;;;;;;;;3.96;88.80;102141.28;4989260;28;20394;-77
2022/01/22 08:02:54;;;;;;;;;;;;;;;3.93;87.86;102151.88;4983293;28;19972;-76
2022/01/22 08:05:20;;;;;;;;;;;;;;;3.95;88.12;102158.72;4991918;28;19961;-76
2022/01/22 08:07:45;;;;;;;;;;;;;;;3.89;88.89;102145.94;4992308;28;20326;-77
2022/01/22 08:10:12;;;;;;;;;;;;;;;3.96;88.63;102142.13;4991083;28;19993;-76
2022/01/22 08:12:37;;;;;;;;;;;;;;;3.94;87.95;102157.03;4983181;28;19924;-77
2022/01/22 08:15:04;;;;;;;;;;;;;;;3.97;88.44;102156.06;4986324;28;19922;-76
2022/01/22 08:17:29;;;;;;;;;;;;;;;3.96;88.57;102157.81;5002187;28;19968;-76
2022/01/22 08:19:54;;;;;;;;;;;;;;;3.98;88.47;102158.63;4986060;28;19922;-76
2022/01/22 08:22:20;;;;;;;;;;;;;;;4.01;88.28;102155.84;4991735;28;20236;-76
2022/01/22 08:24:45;;;;;;;;;;;;;;;4.01;88.20;102145.38;4978796;28;20399;-76
2022/01/22 08:27:18;;;;;;;;;;;;;;;4.01;87.91;102155.00;4980077;28;19919;-77
2022/01/22 08:29:43;;;;;;;;;;;;;;;4.07;87.96;102151.25;4972689;28;19922;-76
2022/01/22 08:37:18;;;;;;;;;;;;;;;4.09;87.67;102154.66;4989278;28;20547;-77
2022/01/22 08:39:43;;;;;;;;;;;;;;;4.05;88.51;102164.41;4991840;28;19918;-77
2022/01/22 08:42:08;;;;;;;;;;;;;;;3.97;89.66;102163.91;4970975;28;19922;-77
2022/01/22 08:44:34;;;;;;;;;;;;;;;3.93;90.09;102155.34;4971558;28;19926;-77
2022/01/22 08:47:00;;;;;;;;;;;;;;;3.90;90.16;102158.09;4973696;28;19918;-77
2022/01/22 08:49:25;;;;;;;;;;;;;;;3.92;90.28;102161.50;4977698;28;20077;-77
2022/01/22 08:51:51;;;;;;;;;;;;;;;3.91;90.94;102161.56;4989566;28;20018;-77
2022/01/22 08:54:16;;;;;;;;;;;;;;;3.91;90.86;102162.44;4987162;28;19972;-77
2022/01/22 08:56:41;;;;;;;;;;;;;;;3.92;91.41;102164.09;4990490;28;19917;-77
2022/01/22 08:59:08;;;;;;;;;;;;;;;3.92;91.52;102163.28;4985375;28;19930;-77
2022/01/22 09:01:33;;;;;;;;;;;;;;;3.96;91.67;102176.16;4981162;28;19941;-77
2022/01/22 09:03:58;;;;;;;;;;;;;;;3.95;92.85;102174.44;4984811;28;19926;-77
2022/01/22 09:06:23;;;;;;;;;;;;;;;3.98;93.34;102182.16;4986471;28;20013;-77
2022/01/22 09:08:50;;;;;;;;;;;;;;;3.97;94.40;102184.84;4982163;28;20309;-77
2022/01/22 09:11:17;;;;;;;;;;;;;;;4.00;93.45;102184.69;4979331;28;19922;-77
2022/01/22 09:13:42;;;;;;;;;;;;;;;4.13;92.16;102188.47;4983891;28;19925;-77
2022/01/22 09:16:07;;;;;;;;;;;;;;;4.16;92.72;102188.34;5009963;28;20009;-77
2022/01/22 09:18:32;;;;;;;;;;;;;;;4.14;93.45;102203.25;4975529;28;19926;-77
2022/01/22 09:23:26;;;;;;;;;;;;;;;4.28;92.51;102202.63;4989921;28;19925;-77
2022/01/22 09:25:51;;;;;;;;;;;;;;;4.30;91.73;102216.50;4989201;28;19929;-77
2022/01/22 09:28:16;;;;;;;;;;;;;;;4.29;91.76;102220.06;4985789;28;20382;-77
2022/01/22 09:30:42;;;;;;;;;;;;;;;4.33;91.01;102211.13;4976366;28;19926;-77
2022/01/22 09:33:07;;;;;;;;;;;;;;;4.29;90.57;102216.56;4984674;28;19926;-77
2022/01/22 09:35:33;;;;;;;;;;;;;;;4.24;90.89;102216.78;4983997;28;20169;-77
2022/01/22 09:37:58;;;;;;;;;;;;;;;4.17;90.99;102216.22;4984097;28;19922;-77
2022/01/22 09:40:24;;;;;;;;;;;;;;;3.97;93.16;102216.25;4984199;28;19976;-77
2022/01/22 09:42:50;;;;;;;;;;;;;;;3.99;91.66;102215.25;4985789;28;20298;-77
2022/01/22 09:45:17;;;;;;;;;;;;;;;3.98;91.46;102221.44;4989237;28;19925;-77
2022/01/22 09:47:45;;;;;;;;;;;;;;;3.98;91.58;102221.44;4976909;28;19926;-77
2022/01/22 09:50:11;;;;;;;;;;;;;;;3.99;91.46;102232.75;5003308;28;19925;-77
2022/01/22 09:52:36;;;;;;;;;;;;;;;3.93;91.69;102230.38;4989460;28;20067;-77
2022/01/22 09:55:01;;;;;;;;;;;;;;;3.90;91.41;102230.53;4982596;28;19980;-77
2022/01/22 09:57:27;;;;;;;;;;;;;;;3.86;91.80;102237.63;4979841;28;19957;-77
2022/01/22 09:59:52;;;;;;;;;;;;;;;3.79;92.97;102241.44;4975523;28;20294;-76
2022/01/22 10:02:19;;;;;;;;;;;;;;;3.78;92.40;102234.50;4975878;28;19980;-77
2022/01/22 10:04:48;;;;;;;;;;;;;;;3.79;92.10;102234.47;4985236;28;19962;-77
2022/01/22 10:07:21;;;;;;;;;;;;;;;3.83;91.98;102236.00;4977734;28;19930;-76
2022/01/22 10:09:58;;;;;;;;;;;;;;;3.75;92.89;102232.88;4978870;28;19922;-77
2022/01/22 10:12:25;;;;;;;;;;;;;;;3.76;92.68;102241.56;4972524;28;19922;-77
2022/01/22 10:15:09;;;;;;;;;;;;;;;3.73;92.68;102233.88;4988081;28;20775;-76
2022/01/22 10:18:02;;;;;;;;;;;;;;;3.73;92.80;102232.09;4988205;28;19926;-77
2022/01/22 10:20:28;;;;;;;;;;;;;;;3.69;92.90;102216.59;5004926;28;19921;-77
2022/01/22 10:22:55;;;;;;;;;;;;;;;3.60;94.38;102230.94;4990753;28;19973;-77
2022/01/22 10:25:21;;;;;;;;;;;;;;;3.58;94.20;102219.69;4990408;28;19926;-77
2022/01/22 10:27:54;;;;;;;;;;;;;;;3.64;93.60;102218.56;4981651;28;20378;-77
2022/01/22 10:30:20;;;;;;;;;;;;;;;3.69;93.58;102227.06;4984762;28;20405;-77
2022/01/22 10:32:59;;;;;;;;;;;;;;;3.69;93.86;102222.66;4986328;28;19922;-76
2022/01/22 10:35:26;;;;;;;;;;;;;;;3.65;93.91;102218.50;4986324;28;19929;-76
2022/01/22 10:37:53;;;;;;;;;;;;;;;3.57;94.39;102216.19;4989240;28;20552;-77
2022/01/22 10:40:22;;;;;;;;;;;;;;;3.63;94.12;102214.25;4981563;28;19922;-77
2022/01/22 10:42:49;;;;;;;;;;;;;;;3.60;94.38;102218.69;4976733;28;20394;-77
2022/01/22 10:45:22;;;;;;;;;;;;;;;3.69;94.06;102213.97;4978758;28;19932;-77
2022/01/22 10:47:48;;;;;;;;;;;;;;;3.69;93.78;102208.75;4979651;28;20302;-77
2022/01/22 10:50:20;;;;;;;;;;;;;;;3.71;93.80;102209.53;4980883;28;20195;-77
2022/01/22 10:52:48;;;;;;;;;;;;;;;3.69;93.91;102211.34;4983019;28;19933;-77
2022/01/22 10:55:13;;;;;;;;;;;;;;;3.74;93.67;102217.25;4974193;28;20013;-77
2022/01/22 10:57:38;;;;;;;;;;;;;;;3.74;94.07;102218.13;4982896;28;20065;-77
2022/01/22 11:00:04;;;;;;;;;;;;;;;3.80;93.84;102224.84;4982352;28;19929;-77
2022/01/22 11:02:30;;;;;;;;;;;;;;;3.79;93.45;102229.22;4983118;28;20021;-77
2022/01/22 11:04:56;;;;;;;;;;;;;;;3.74;93.86;102218.13;4986143;28;19932;-76
2022/01/22 11:07:21;;;;;;;;;;;;;;;3.79;93.51;102208.28;4986609;28;19925;-76
2022/01/22 11:09:47;;;;;;;;;;;;;;;3.82;93.54;102212.53;4975056;28;20018;-76
2022/01/22 11:12:13;;;;;;;;;;;;;;;3.81;93.73;102221.28;4984084;28;19925;-77
2022/01/22 11:14:38;;;;;;;;;;;;;;;3.83;93.41;102227.31;4987781;28;19928;-77
